Morrison, Argentina
Current Conditions -  °F | °C
As of 11:00 AM on Wednesday 22 Oct 2014 (Local Time) from SAOC Reporting Station
Clear Clear  
Wind Chill: 82°   Ceiling: Unl
Heat Index: 82°   Visibility: 6mi
Dew Point: 52°   Wind: 17mph
Humidity: 35%   Direction: 360°N
Pressure: 29.94"   Gusts: NA
Location:  32.6°S, 62.83°W
Report Text: SAOC 221400Z 36015KT CAVOK 28/11 Q1014
Loading
Personal Weather Stations






























Interactive Weather Map
Tropical Storm Tracking
New forecast layout! Learn more

10-Day Weather Forecast

Advertisements
Track Severe Weather on mobile